Time;durP1;ratioP1;P1;durP2;ratioP2;P2;SDS_P1;SDS_P2;PMS_P1;PMS_P2;Temp;Humidity;BMP_temperature;BMP_pressure;BME280_temperature;BME280_humidity;BME280_pressure;Samples;Min_cycle;Max_cycle;Signal;HPM_P1;HPM_P2
2022/02/21 19:50:03;;;;;;;16.13;5.70;;;;;;;6.49;49.62;98408.31;6228878;22;96364;-87
2022/02/21 19:52:28;;;;;;;15.67;5.27;;;;;;;6.42;49.99;98399.09;6142160;22;96773;-88
2022/02/21 19:54:54;;;;;;;15.93;5.70;;;;;;;6.52;49.64;98419.44;6142608;22;97514;-88
2022/02/21 19:57:19;;;;;;;14.83;5.30;;;;;;;6.45;49.92;98415.41;6142499;22;101319;-87
2022/02/21 19:59:45;;;;;;;16.17;5.57;;;;;;;6.44;49.78;98411.13;6141630;22;96433;-83
2022/02/21 20:02:11;;;;;;;15.27;5.80;;;;;;;6.40;50.10;98409.59;6142781;22;96718;-80
2022/02/21 20:04:36;;;;;;;14.00;5.23;;;;;;;6.44;49.39;98416.34;6141895;22;100878;-86
2022/02/21 20:07:06;;;;;;;17.40;5.97;;;;;;;6.26;49.76;98391.16;6142486;22;96484;-88
2022/02/21 20:09:34;;;;;;;14.73;4.90;;;;;;;6.30;49.75;98409.16;6142754;22;96596;-88
2022/02/21 20:12:00;;;;;;;17.00;6.37;;;;;;;6.33;49.81;98421.22;6169129;22;97745;-90
2022/02/21 20:14:26;;;;;;;13.33;5.37;;;;;;;6.38;49.80;98427.06;6164570;22;98350;-86
2022/02/21 20:16:51;;;;;;;19.43;6.20;;;;;;;6.30;50.16;98400.50;6139527;22;100948;-83
2022/02/21 20:19:17;;;;;;;14.80;5.00;;;;;;;6.35;49.62;98403.75;6139413;22;96833;-87
2022/02/21 20:21:46;;;;;;;12.10;5.10;;;;;;;6.46;49.76;98424.09;6139547;22;97153;-86
2022/02/21 20:24:11;;;;;;;14.90;4.60;;;;;;;6.48;49.68;98425.69;6139142;22;99422;-86
2022/02/21 20:26:37;;;;;;;11.70;4.37;;;;;;;6.45;49.75;98415.41;6137617;22;100556;-82
2022/02/21 20:29:06;;;;;;;11.80;3.80;;;;;;;6.58;49.39;98428.72;6113690;22;96625;-83
2022/02/21 20:31:33;;;;;;;12.87;4.20;;;;;;;6.63;49.72;98438.91;6187547;22;97086;-83
2022/02/21 20:33:58;;;;;;;11.83;3.70;;;;;;;6.66;49.49;98439.63;6163146;22;98076;-80
2022/02/21 20:36:24;;;;;;;10.43;3.60;;;;;;;6.70;49.34;98440.34;6162271;22;97876;-84
2022/02/21 20:38:50;;;;;;;8.67;3.50;;;;;;;6.73;49.72;98445.41;6117396;22;96677;-76
2022/02/21 20:41:16;;;;;;;13.20;4.70;;;;;;;6.74;49.55;98432.28;6167380;22;96807;-73
2022/02/21 20:43:42;;;;;;;20.27;4.63;;;;;;;6.87;49.16;98439.53;6165727;22;101273;-74
2022/02/21 20:46:08;;;;;;;11.38;4.53;;;;;;;6.83;49.06;98437.97;6139896;22;101360;-73
2022/02/21 20:48:34;;;;;;;9.13;4.00;;;;;;;6.86;49.44;98428.22;6140525;22;96802;-72
2022/02/21 20:51:00;;;;;;;7.53;3.30;;;;;;;6.88;48.80;98434.22;6185562;22;96755;-73
2022/02/21 20:53:25;;;;;;;8.90;2.80;;;;;;;7.00;49.04;98459.69;6134211;22;97862;-73
2022/02/21 20:55:51;;;;;;;9.33;3.40;;;;;;;6.98;49.27;98456.34;6133658;22;99340;-73
2022/02/21 20:58:17;;;;;;;7.18;3.08;;;;;;;7.03;49.41;98456.94;6134265;22;97150;-73
2022/02/21 21:00:42;;;;;;;8.73;2.63;;;;;;;6.93;49.29;98442.66;6159217;22;97047;-73
2022/02/21 21:03:08;;;;;;;12.43;5.20;;;;;;;7.03;49.48;98456.94;6159803;22;98111;-73
2022/02/21 21:05:34;;;;;;;9.40;3.20;;;;;;;7.17;49.29;98468.47;6133124;22;101482;-73
2022/02/21 21:08:00;;;;;;;15.15;3.08;;;;;;;7.15;49.29;98467.69;6134847;22;98300;-73
2022/02/21 21:10:26;;;;;;;8.65;3.53;;;;;;;7.22;49.21;98474.31;6159867;22;96741;-73
2022/02/21 21:12:57;;;;;;;6.70;3.25;;;;;;;7.22;48.88;98475.16;6133960;22;98147;-73
2022/02/21 21:15:23;;;;;;;7.63;3.35;;;;;;;7.22;49.09;98474.31;6159095;22;97257;-73
2022/02/21 21:17:49;;;;;;;5.67;3.00;;;;;;;7.23;49.33;98471.59;6159238;22;96725;-73
2022/02/21 21:20:15;;;;;;;9.88;4.43;;;;;;;7.26;49.32;98475.84;6134415;22;96925;-71
2022/02/21 21:22:41;;;;;;;11.27;4.93;;;;;;;7.29;49.43;98480.91;6133114;22;101422;-72
2022/02/21 21:25:07;;;;;;;10.67;4.27;;;;;;;7.30;49.23;98492.19;6158739;22;97717;-71
2022/02/21 21:27:32;;;;;;;14.95;4.50;;;;;;;7.31;49.06;98491.28;6159142;22;96898;-74
2022/02/21 21:29:58;;;;;;;10.35;3.85;;;;;;;7.29;49.97;98490.50;6158575;22;96891;-71
2022/02/21 21:32:24;;;;;;;8.45;3.53;;;;;;;7.35;49.70;98492.81;6134196;22;97869;-72
2022/02/21 21:34:50;;;;;;;8.88;3.28;;;;;;;7.09;49.74;98453.19;6132902;22;97391;-72
2022/02/21 21:37:17;;;;;;;11.70;4.67;;;;;;;7.34;49.93;98496.34;6159108;22;96487;-71
2022/02/21 21:39:43;;;;;;;14.88;5.28;;;;;;;7.13;49.89;98474.78;6158063;22;96822;-72
2022/02/21 21:42:08;;;;;;;7.22;3.00;;;;;;;7.25;50.48;98501.09;6109250;22;101388;-71
2022/02/21 21:44:34;;;;;;;10.15;4.35;;;;;;;7.32;50.26;98511.22;6156388;22;101133;-72
2022/02/21 21:46:59;;;;;;;10.40;3.30;;;;;;;7.33;50.55;98521.59;6134537;22;96611;-71
2022/02/21 21:49:25;;;;;;;9.30;3.08;;;;;;;7.32;50.58;98525.13;6133602;22;96781;-71
2022/02/21 21:51:51;;;;;;;9.55;2.95;;;;;;;7.31;51.14;98536.50;6134041;22;97552;-71
2022/02/21 21:54:17;;;;;;;9.00;2.90;;;;;;;7.26;51.53;98535.88;6158352;22;101436;-71
2022/02/21 21:56:42;;;;;;;6.60;2.50;;;;;;;7.28;51.27;98534.03;6133932;22;96647;-71
2022/02/21 21:59:08;;;;;;;8.20;2.95;;;;;;;7.38;51.38;98547.47;6134797;22;96754;-72
2022/02/21 22:01:33;;;;;;;8.48;2.88;;;;;;;7.38;51.14;98537.88;6133293;22;97968;-71
2022/02/21 22:03:59;;;;;;;10.55;2.95;;;;;;;7.45;50.95;98538.44;6133499;22;101274;-71
2022/02/21 22:06:25;;;;;;;8.95;3.90;;;;;;;7.39;51.37;98541.34;6159486;22;98023;-71
2022/02/21 22:08:51;;;;;;;5.22;2.33;;;;;;;7.41;51.63;98558.59;6159724;22;98134;-71
2022/02/21 22:11:16;;;;;;;5.78;2.67;;;;;;;7.42;51.80;98554.25;6185716;22;96708;-73
2022/02/21 22:13:42;;;;;;;8.02;2.72;;;;;;;7.32;51.83;98547.78;6158668;22;97218;-74
2022/02/21 22:16:08;;;;;;;4.47;2.33;;;;;;;7.36;51.72;98551.91;6133981;22;97232;-74
2022/02/21 22:18:34;;;;;;;6.05;2.70;;;;;;;7.41;52.54;98571.66;6134819;22;96757;-71
2022/02/21 22:20:59;;;;;;;10.35;3.50;;;;;;;7.39;53.43;98578.72;6133115;22;99719;-71
2022/02/21 22:23:25;;;;;;;6.47;2.40;;;;;;;7.41;53.81;98592.53;6134089;22;98272;-71
2022/02/21 22:25:51;;;;;;;4.93;2.45;;;;;;;7.37;54.09;98584.94;6133933;22;96688;-74
2022/02/21 22:28:17;;;;;;;6.88;2.47;;;;;;;7.39;54.49;98602.22;6135086;22;97533;-74
2022/02/21 22:30:45;;;;;;;6.63;2.22;;;;;;;7.28;54.71;98593.22;6132964;22;100929;-73
2022/02/21 22:33:12;;;;;;;6.97;2.43;;;;;;;7.39;55.33;98617.06;6133988;22;101465;-73
2022/02/21 22:35:37;;;;;;;7.72;2.30;;;;;;;7.34;56.23;98614.66;6133752;22;96675;-73
2022/02/21 22:38:03;;;;;;;3.42;1.63;;;;;;;7.36;55.98;98625.88;6186530;22;96791;-73
2022/02/21 22:40:29;;;;;;;3.08;1.27;;;;;;;7.34;56.87;98630.31;6158801;22;97438;-73
2022/02/21 22:42:56;;;;;;;4.30;1.55;;;;;;;7.32;56.94;98632.13;6133377;22;97842;-74
2022/02/21 22:45:25;;;;;;;3.10;1.17;;;;;;;7.27;57.37;98618.44;6186158;22;96510;-71
2022/02/21 22:47:50;;;;;;;3.72;1.08;;;;;;;7.31;58.13;98630.47;6158982;22;96738;-71
2022/02/21 22:50:16;;;;;;;3.20;1.20;;;;;;;7.26;58.53;98635.03;6133354;22;97262;-71
2022/02/21 22:52:41;;;;;;;2.45;1.13;;;;;;;7.25;58.71;98649.03;6158073;22;100802;-71
2022/02/21 22:55:07;;;;;;;1.92;1.00;;;;;;;7.23;58.60;98661.28;6133795;22;96572;-72
2022/02/21 22:57:34;;;;;;;1.70;1.00;;;;;;;7.23;58.90;98661.28;6134789;22;96718;-71
2022/02/21 23:00:01;;;;;;;2.25;1.30;;;;;;;7.24;58.82;98665.56;6132876;22;97919;-71
2022/02/21 23:02:26;;;;;;;1.95;0.95;;;;;;;7.22;59.47;98681.31;6158834;22;97804;-73
2022/02/21 23:04:57;;;;;;;2.50;0.98;;;;;;;7.15;59.64;98682.50;6108280;22;96616;-72
2022/02/21 23:10:09;;;;;;;1.70;0.90;;;;;;;7.17;59.98;98698.94;6185144;22;97122;-72
2022/02/21 23:12:36;;;;;;;1.37;0.97;;;;;;;7.14;60.00;98699.09;6133564;22;98368;-72
2022/02/21 23:15:03;;;;;;;1.40;0.87;;;;;;;7.02;60.22;98689.22;6133632;22;96626;-72
2022/02/21 23:17:29;;;;;;;4.45;1.17;;;;;;;7.07;60.63;98725.53;6133931;22;96762;-72
2022/02/21 23:19:54;;;;;;;4.30;1.30;;;;;;;7.03;60.92;98720.44;6184698;22;97314;-72
2022/02/21 23:22:20;;;;;;;2.72;1.10;;;;;;;7.01;61.04;98730.13;6158594;22;98220;-72
2022/02/21 23:24:46;;;;;;;3.30;0.87;;;;;;;7.01;60.79;98724.91;6132600;22;96567;-73
2022/02/21 23:27:11;;;;;;;2.75;1.73;;;;;;;6.90;61.08;98727.16;6109494;22;96745;-72
2022/02/21 23:29:37;;;;;;;1.80;1.00;;;;;;;6.93;61.17;98747.88;6157635;22;99120;-72
2022/02/21 23:32:03;;;;;;;3.15;0.98;;;;;;;7.00;60.98;98751.91;6107732;22;100867;-72
2022/02/21 23:34:29;;;;;;;1.88;0.80;;;;;;;7.00;61.27;98753.66;6158207;22;96912;-72
2022/02/21 23:36:54;;;;;;;3.53;1.10;;;;;;;7.01;61.09;98758.81;6158737;22;96741;-72
2022/02/21 23:39:20;;;;;;;3.33;1.20;;;;;;;7.01;61.49;98769.25;6132792;22;101431;-72
2022/02/21 23:41:45;;;;;;;1.85;0.90;;;;;;;6.99;61.33;98775.47;6132356;22;101551;-74
2022/02/21 23:44:11;;;;;;;2.30;1.23;;;;;;;7.01;61.30;98778.81;6108179;22;96652;-74
2022/02/21 23:46:37;;;;;;;2.37;1.00;;;;;;;6.89;61.16;98763.72;6131301;22;96815;-72
2022/02/21 23:49:04;;;;;;;1.77;1.05;;;;;;;6.95;61.30;98789.53;6131867;22;97333;-72
2022/02/21 23:51:29;;;;;;;2.75;1.30;;;;;;;6.97;61.82;98790.31;6132431;22;98296;-72
2022/02/21 23:53:55;;;;;;;3.77;1.20;;;;;;;6.90;61.43;98779.31;6132334;22;97318;-72
2022/02/21 23:56:21;;;;;;;3.15;1.40;;;;;;;6.97;61.65;98803.38;6158198;22;96790;-72
2022/02/21 23:58:47;;;;;;;3.05;1.30;;;;;;;6.95;61.89;98799.97;6157142;22;100830;-74
